createdAt,value
2022-10-28T00:01:30.849Z,100.00
2022-10-28T00:07:22.038Z,100.00
2022-10-28T00:15:47.481Z,100.00
2022-10-28T00:18:37.652Z,100.00
2022-10-28T00:27:00.456Z,100.00
2022-10-28T00:32:31.521Z,100.00
2022-10-28T00:38:19.741Z,100.00
2022-10-28T00:43:51.854Z,100.00
2022-10-28T00:49:33.308Z,100.00
2022-10-28T00:55:10.674Z,100.00
2022-10-28T00:58:00.861Z,100.00
2022-10-28T01:03:38.439Z,100.00
2022-10-28T01:09:15.566Z,100.00
2022-10-28T01:14:59.096Z,100.00
2022-10-28T01:20:59.945Z,100.00
2022-10-28T01:30:10.942Z,100.00
2022-10-28T01:35:53.868Z,100.00
2022-10-28T01:38:46.004Z,100.00
2022-10-28T01:44:27.017Z,100.00
2022-10-28T01:53:09.585Z,100.00
2022-10-28T01:58:41.046Z,100.00
2022-10-28T02:04:20.188Z,100.00
2022-10-28T02:09:56.952Z,100.00
2022-10-28T02:12:46.478Z,100.00
2022-10-28T02:21:08.510Z,100.00
2022-10-28T02:26:48.717Z,100.00
2022-10-28T02:35:22.394Z,100.00
2022-10-28T02:43:55.168Z,100.00
2022-10-28T02:49:28.064Z,100.00
2022-10-28T02:52:17.800Z,100.00
2022-10-28T02:57:49.562Z,100.00
2022-10-28T03:03:20.139Z,100.00
2022-10-28T03:08:51.365Z,100.00
2022-10-28T03:17:08.204Z,100.00
2022-10-28T03:22:46.855Z,100.00
2022-10-28T03:28:17.998Z,100.00
2022-10-28T03:31:06.978Z,100.00
2022-10-28T03:36:44.190Z,100.00
2022-10-28T03:42:18.163Z,100.00
2022-10-28T03:45:08.978Z,100.00
2022-10-28T03:53:29.008Z,100.00
2022-10-28T03:59:05.943Z,100.00
2022-10-28T04:04:35.495Z,100.00
2022-10-28T04:07:23.695Z,100.00
2022-10-28T04:10:12.782Z,100.00
2022-10-28T04:13:02.701Z,100.00
2022-10-28T04:18:29.732Z,100.00
2022-10-28T04:24:00.995Z,100.00
2022-10-28T04:29:34.242Z,100.00
2022-10-28T04:35:11.873Z,100.00
2022-10-28T04:40:42.988Z,100.00
2022-10-28T04:46:18.774Z,100.00
2022-10-28T04:51:48.112Z,100.00
2022-10-28T04:57:23.816Z,100.00
2022-10-28T05:02:55.633Z,100.00
2022-10-28T05:08:28.490Z,100.00
2022-10-28T05:14:00.573Z,100.00
2022-10-28T05:16:49.441Z,100.00
2022-10-28T05:22:24.005Z,100.00
2022-10-28T05:28:01.296Z,100.00
2022-10-28T05:33:37.124Z,100.00
2022-10-28T05:39:15.113Z,100.00
2022-10-28T05:44:51.835Z,100.00
2022-10-28T05:50:35.468Z,100.00
2022-10-28T05:53:23.651Z,100.00
2022-10-28T05:58:59.605Z,100.00
2022-10-28T06:01:48.158Z,100.00
2022-10-28T06:10:12.000Z,100.00
2022-10-28T06:12:59.400Z,100.00
2022-10-28T06:18:32.471Z,100.00
2022-10-28T06:24:03.432Z,100.00
2022-10-28T06:29:31.801Z,100.00
2022-10-28T06:32:21.048Z,100.00
2022-10-28T06:38:09.555Z,100.00
2022-10-28T06:43:43.651Z,100.00
2022-10-28T06:46:34.059Z,100.00
2022-10-28T06:52:08.485Z,100.00
2022-10-28T06:57:44.950Z,100.00
2022-10-28T07:03:23.040Z,100.00
2022-10-28T07:09:03.894Z,100.00
2022-10-28T07:14:39.851Z,100.00
2022-10-28T07:20:16.277Z,100.00
2022-10-28T07:25:56.245Z,97.66
2022-10-28T07:28:44.559Z,97.53
2022-10-28T07:34:13.519Z,98.67
2022-10-28T07:37:06.058Z,97.83
2022-10-28T07:42:42.175Z,96.49
2022-10-28T07:48:21.434Z,95.07
2022-10-28T07:56:41.082Z,94.52
2022-10-28T08:02:07.083Z,92.95
2022-10-28T08:04:56.681Z,91.76
2022-10-28T08:10:35.254Z,89.53
2022-10-28T08:13:23.478Z,88.48
2022-10-28T08:19:07.549Z,83.80
2022-10-28T08:21:55.223Z,83.67
2022-10-28T08:24:43.977Z,83.62
2022-10-28T08:30:21.043Z,82.62
2022-10-28T08:35:54.232Z,82.18
2022-10-28T08:41:36.643Z,81.55
2022-10-28T08:47:33.644Z,79.37
2022-10-28T08:53:16.182Z,80.49
2022-10-28T08:59:25.512Z,80.45
2022-10-28T09:02:21.872Z,81.78
2022-10-28T09:08:15.119Z,81.98
2022-10-28T09:14:12.128Z,82.28
2022-10-28T09:17:06.783Z,81.69
2022-10-28T09:22:44.000Z,79.48
2022-10-28T09:28:41.624Z,78.20
2022-10-28T09:34:22.619Z,77.02
2022-10-28T09:40:10.482Z,77.05
2022-10-28T09:45:56.940Z,76.11
2022-10-28T09:51:37.898Z,73.60
2022-10-28T09:57:06.707Z,74.18
2022-10-28T10:02:42.639Z,72.19
2022-10-28T10:11:28.801Z,73.51
2022-10-28T10:14:19.312Z,74.14
2022-10-28T10:17:13.085Z,75.74
2022-10-28T10:22:51.168Z,75.94
2022-10-28T10:28:21.161Z,73.92
2022-10-28T10:31:19.168Z,75.34
2022-10-28T10:39:43.483Z,74.34
2022-10-28T10:42:39.133Z,73.76
2022-10-28T10:45:25.967Z,74.12
2022-10-28T10:48:16.063Z,74.23
2022-10-28T10:53:49.223Z,72.71
2022-10-28T10:59:23.955Z,71.96
2022-10-28T11:05:06.533Z,68.89
2022-10-28T11:07:56.513Z,67.41
2022-10-28T11:10:45.642Z,67.35
2022-10-28T11:16:25.714Z,64.06
2022-10-28T11:22:20.651Z,62.44
2022-10-28T11:28:49.340Z,65.56
2022-10-28T11:34:44.173Z,67.33
2022-10-28T11:40:32.582Z,65.95
2022-10-28T11:46:12.334Z,65.13
2022-10-28T11:49:26.385Z,64.70
2022-10-28T11:55:17.127Z,64.79
2022-10-28T12:01:16.426Z,65.89
2022-10-28T12:04:19.190Z,64.50
2022-10-28T12:07:22.383Z,66.35
2022-10-28T12:10:19.251Z,65.29
2022-10-28T12:16:01.758Z,65.31
2022-10-28T12:18:52.517Z,65.86
2022-10-28T12:21:42.789Z,66.57
2022-10-28T12:27:23.877Z,63.32
2022-10-28T12:30:20.487Z,63.78
2022-10-28T12:33:12.712Z,63.48
2022-10-28T12:38:58.594Z,63.84
2022-10-28T12:44:37.091Z,65.17
2022-10-28T12:47:28.181Z,65.18
2022-10-28T12:50:20.513Z,65.60
2022-10-28T12:56:10.756Z,66.48
2022-10-28T13:01:51.913Z,67.71
2022-10-28T13:07:39.997Z,66.86
2022-10-28T13:13:29.492Z,67.90
2022-10-28T13:16:35.151Z,67.91
2022-10-28T13:19:41.244Z,68.73
2022-10-28T13:26:12.010Z,72.92
2022-10-28T13:29:03.280Z,73.34
2022-10-28T13:34:46.470Z,73.71
2022-10-28T13:37:39.265Z,73.77
2022-10-28T13:41:04.021Z,72.68
2022-10-28T13:44:01.343Z,72.44
2022-10-28T13:50:48.312Z,72.12
2022-10-28T13:56:31.937Z,71.08
2022-10-28T13:59:29.951Z,70.43
2022-10-28T14:02:35.557Z,70.68
2022-10-28T14:05:28.110Z,71.27
2022-10-28T14:11:21.584Z,73.64
2022-10-28T14:17:39.693Z,74.00
2022-10-28T14:23:51.538Z,73.00
2022-10-28T14:27:16.047Z,72.72
2022-10-28T14:30:24.835Z,74.06
2022-10-28T14:36:16.771Z,73.58
2022-10-28T14:39:24.157Z,73.60
2022-10-28T14:45:21.580Z,74.12
2022-10-28T14:48:28.454Z,72.88
2022-10-28T14:54:05.340Z,72.90
2022-10-28T14:59:45.387Z,72.79
2022-10-28T15:05:25.705Z,72.58
2022-10-28T15:08:15.201Z,72.13
2022-10-28T15:11:05.151Z,72.36
2022-10-28T15:13:54.899Z,72.95
2022-10-28T15:16:48.672Z,73.24
2022-10-28T15:19:38.326Z,72.35
2022-10-28T15:22:33.129Z,72.42
2022-10-28T15:25:23.762Z,73.09
2022-10-28T15:28:13.479Z,74.16
2022-10-28T15:31:03.222Z,74.63
2022-10-28T15:33:51.570Z,75.02
2022-10-28T15:36:49.725Z,75.77
2022-10-28T15:39:38.105Z,76.29
2022-10-28T15:42:38.545Z,77.13
2022-10-28T15:45:30.140Z,77.99
2022-10-28T15:51:14.823Z,78.45
2022-10-28T15:56:59.629Z,77.63
2022-10-28T15:59:47.898Z,76.44
2022-10-28T16:02:45.468Z,75.78
2022-10-28T16:08:41.421Z,77.05
2022-10-28T16:14:37.845Z,77.25
2022-10-28T16:20:18.532Z,79.67
2022-10-28T16:23:05.573Z,80.70
2022-10-28T16:25:53.776Z,81.19
2022-10-28T16:34:19.432Z,81.17
2022-10-28T16:37:19.998Z,81.07
2022-10-28T16:45:41.054Z,82.11
2022-10-28T16:51:19.909Z,82.22
2022-10-28T16:56:48.886Z,82.41
2022-10-28T17:02:25.149Z,82.72
2022-10-28T17:07:58.940Z,83.16
2022-10-28T17:13:25.370Z,82.83
2022-10-28T17:16:14.202Z,83.17
2022-10-28T17:19:04.231Z,83.05
2022-10-28T17:24:36.348Z,83.29
2022-10-28T17:30:11.800Z,84.04
2022-10-28T17:35:41.914Z,84.36
2022-10-28T17:38:30.654Z,84.87
2022-10-28T17:41:19.235Z,85.40
2022-10-28T17:44:09.226Z,86.58
2022-10-28T17:47:00.220Z,87.27
2022-10-28T17:52:40.158Z,88.24
2022-10-28T17:58:15.673Z,88.06
2022-10-28T18:03:46.727Z,87.32
2022-10-28T18:09:28.235Z,86.68
2022-10-28T18:12:21.485Z,86.53
2022-10-28T18:17:56.595Z,86.24
2022-10-28T18:20:55.007Z,86.01
2022-10-28T18:26:31.135Z,85.57
2022-10-28T18:32:04.644Z,85.62
2022-10-28T18:34:53.902Z,85.32
2022-10-28T18:40:30.931Z,84.96
2022-10-28T18:46:06.865Z,85.45
2022-10-28T18:49:06.619Z,85.01
2022-10-28T18:51:54.918Z,84.72
2022-10-28T18:54:44.010Z,84.65
2022-10-28T18:57:35.758Z,84.76
2022-10-28T19:00:25.607Z,84.95
2022-10-28T19:06:05.317Z,85.84
2022-10-28T19:12:11.783Z,85.43
2022-10-28T19:17:40.395Z,86.40
2022-10-28T19:23:15.764Z,86.84
2022-10-28T19:29:11.700Z,85.84
2022-10-28T19:32:08.202Z,85.79
2022-10-28T19:34:58.425Z,85.46
2022-10-28T19:37:46.874Z,85.19
2022-10-28T19:40:39.117Z,84.80
2022-10-28T19:43:31.677Z,85.27
2022-10-28T19:46:26.887Z,86.67
2022-10-28T19:49:28.700Z,88.70
2022-10-28T19:55:14.446Z,92.32
2022-10-28T20:00:50.671Z,91.70
2022-10-28T20:06:29.059Z,95.24
2022-10-28T20:09:28.662Z,95.67
2022-10-28T20:15:29.272Z,96.03
2022-10-28T20:18:18.843Z,95.18
2022-10-28T20:24:10.403Z,95.01
2022-10-28T20:36:28.086Z,97.37
2022-10-28T20:42:18.391Z,98.63
2022-10-28T20:45:08.699Z,98.76
2022-10-28T20:51:12.114Z,98.45
2022-10-28T20:56:56.197Z,98.27
2022-10-28T21:00:17.019Z,98.42
2022-10-28T21:03:04.055Z,98.52
2022-10-28T21:05:56.732Z,98.68
2022-10-28T21:11:32.464Z,98.09
2022-10-28T21:17:08.586Z,97.32
2022-10-28T21:22:44.433Z,97.08
2022-10-28T21:25:33.514Z,96.57
2022-10-28T21:28:22.621Z,96.32
2022-10-28T21:34:04.473Z,95.68
2022-10-28T21:39:39.769Z,94.24
2022-10-28T21:42:30.918Z,93.76
2022-10-28T21:45:20.774Z,94.20
2022-10-28T21:48:09.116Z,93.95
2022-10-28T21:53:45.435Z,93.35
2022-10-28T21:56:33.883Z,92.68
2022-10-28T21:59:24.394Z,91.63
2022-10-28T22:04:56.786Z,92.87
2022-10-28T22:07:45.078Z,92.91
2022-10-28T22:10:35.989Z,93.35
2022-10-28T22:16:17.838Z,96.57
2022-10-28T22:21:46.226Z,97.23
2022-10-28T22:27:19.827Z,98.47
2022-10-28T22:30:13.635Z,97.42
2022-10-28T22:35:58.519Z,98.47
2022-10-28T22:41:34.886Z,98.39
2022-10-28T22:47:10.094Z,97.12
2022-10-28T22:49:59.019Z,96.91
2022-10-28T22:52:48.611Z,95.42
2022-10-28T22:58:26.428Z,95.54
2022-10-28T23:04:02.588Z,95.76
2022-10-28T23:06:51.835Z,95.91
2022-10-28T23:12:23.685Z,92.71
2022-10-28T23:17:53.862Z,95.02
2022-10-28T23:23:22.643Z,95.80
2022-10-28T23:28:57.076Z,96.42
2022-10-28T23:34:32.078Z,97.95
2022-10-28T23:40:05.142Z,98.02
2022-10-28T23:45:34.074Z,98.37
2022-10-28T23:51:10.637Z,97.12
2022-10-28T23:56:53.260Z,91.69
